createdAt,value
2023-03-07T00:03:30.530Z,94482.00
2023-03-07T00:09:03.511Z,94475.00
2023-03-07T00:14:31.694Z,94483.00
2023-03-07T00:19:59.822Z,94469.00
2023-03-07T00:25:28.048Z,94478.00
2023-03-07T00:31:02.508Z,94475.00
2023-03-07T00:36:31.682Z,94468.00
2023-03-07T00:41:59.960Z,94459.00
2023-03-07T00:47:28.120Z,94452.00
2023-03-07T00:52:56.516Z,94448.00
2023-03-07T00:58:25.238Z,94440.00
2023-03-07T01:03:53.997Z,94435.00
2023-03-07T01:09:23.752Z,94436.00
2023-03-07T01:14:52.118Z,94422.00
2023-03-07T01:20:20.515Z,94422.00
2023-03-07T01:25:48.734Z,94416.00
2023-03-07T01:31:16.887Z,94414.00
2023-03-07T01:36:45.155Z,94402.00
2023-03-07T01:42:14.026Z,94395.00
2023-03-07T01:47:45.798Z,94406.00
2023-03-07T01:53:15.903Z,94406.00
2023-03-07T01:58:44.935Z,94395.00
2023-03-07T02:04:23.677Z,94389.00
2023-03-07T02:09:53.156Z,94382.00
2023-03-07T02:15:21.506Z,94377.00
2023-03-07T02:21:20.243Z,94373.00
2023-03-07T02:26:51.816Z,94372.00
2023-03-07T02:32:20.107Z,94364.00
2023-03-07T02:37:51.329Z,94370.00
2023-03-07T02:43:21.192Z,94373.00
2023-03-07T02:48:49.342Z,94378.00
2023-03-07T02:54:19.374Z,94375.00
2023-03-07T02:59:48.047Z,94375.00
2023-03-07T03:05:16.491Z,94380.00
2023-03-07T03:10:45.259Z,94380.00
2023-03-07T03:16:14.589Z,94368.00
2023-03-07T03:21:43.910Z,94369.00
2023-03-07T03:27:12.398Z,94365.00
2023-03-07T03:32:41.453Z,94363.00
2023-03-07T03:38:12.758Z,94363.00
2023-03-07T03:43:45.281Z,94353.00
2023-03-07T03:49:14.202Z,94354.00
2023-03-07T03:54:43.534Z,94351.00
2023-03-07T04:00:15.914Z,94348.00
2023-03-07T04:05:44.431Z,94344.00
2023-03-07T04:11:13.970Z,94348.00
2023-03-07T04:16:42.725Z,94335.00
2023-03-07T04:22:11.448Z,94338.00
2023-03-07T04:27:40.639Z,94328.00
2023-03-07T04:33:09.695Z,94327.00
2023-03-07T04:38:42.369Z,94325.00
2023-03-07T04:44:10.915Z,94322.00
2023-03-07T04:49:39.224Z,94317.00
2023-03-07T04:55:08.528Z,94313.00
2023-03-07T05:00:36.699Z,94324.00
2023-03-07T05:06:08.571Z,94319.00
2023-03-07T05:11:36.932Z,94327.00
2023-03-07T05:17:05.579Z,94322.00
2023-03-07T05:22:33.709Z,94320.00
2023-03-07T05:28:01.975Z,94333.00
2023-03-07T05:33:30.161Z,94329.00
2023-03-07T05:38:58.765Z,94322.00
2023-03-07T05:44:27.068Z,94316.00
2023-03-07T05:49:56.872Z,94316.00
2023-03-07T05:55:25.048Z,94326.00
2023-03-07T06:00:53.567Z,94324.00
2023-03-07T06:06:21.748Z,94315.00
2023-03-07T06:11:50.025Z,94321.00
2023-03-07T06:17:18.180Z,94319.00
2023-03-07T06:22:46.701Z,94317.00
2023-03-07T06:28:17.889Z,94332.00
2023-03-07T06:33:47.686Z,94318.00
2023-03-07T06:39:21.188Z,94332.00
2023-03-07T06:44:51.132Z,94330.00
2023-03-07T06:50:29.828Z,94329.00
2023-03-07T06:56:03.788Z,94325.00
2023-03-07T07:01:36.413Z,94337.00
2023-03-07T07:07:04.906Z,94328.00
2023-03-07T07:12:33.297Z,94332.00
2023-03-07T07:18:01.567Z,94327.00
2023-03-07T07:23:31.938Z,94325.00
2023-03-07T07:29:00.831Z,94325.00
2023-03-07T07:34:29.412Z,94321.00
2023-03-07T07:39:58.183Z,94308.00
2023-03-07T07:45:26.738Z,94312.00
2023-03-07T07:50:55.100Z,94299.00
2023-03-07T07:56:23.046Z,94311.00
2023-03-07T08:01:51.392Z,94290.00
2023-03-07T08:07:19.257Z,94312.00
2023-03-07T08:12:54.223Z,94304.00
2023-03-07T08:18:22.505Z,94300.00
2023-03-07T08:23:50.980Z,94298.00
2023-03-07T08:29:19.232Z,94294.00
2023-03-07T08:34:47.464Z,94305.00
2023-03-07T08:40:16.620Z,94294.00
2023-03-07T08:45:44.926Z,94292.00
2023-03-07T08:51:16.671Z,94276.00
2023-03-07T08:56:45.256Z,94283.00
2023-03-07T09:02:13.666Z,94290.00
2023-03-07T09:07:42.505Z,94275.00
2023-03-07T09:13:10.892Z,94277.00
2023-03-07T09:18:39.046Z,94273.00
2023-03-07T09:24:07.687Z,94267.00
2023-03-07T09:29:35.901Z,94255.00
2023-03-07T09:35:04.005Z,94258.00
2023-03-07T09:40:32.054Z,94257.00
2023-03-07T09:46:51.322Z,94252.00
2023-03-07T09:52:33.855Z,94238.00
2023-03-07T09:58:09.341Z,94228.00
2023-03-07T10:04:04.636Z,94240.00
2023-03-07T10:09:32.740Z,94226.00
2023-03-07T10:15:39.175Z,94203.00
2023-03-07T10:21:41.318Z,94196.00
2023-03-07T10:27:15.107Z,94192.00
2023-03-07T10:32:54.432Z,94173.00
2023-03-07T10:38:38.220Z,94158.00
2023-03-07T10:44:06.470Z,94155.00
2023-03-07T10:49:48.616Z,94152.00
2023-03-07T10:55:44.850Z,94148.00
2023-03-07T11:01:20.895Z,94135.00
2023-03-07T11:06:56.044Z,94132.00
2023-03-07T11:12:26.587Z,94113.00
2023-03-07T11:17:54.477Z,94110.00
2023-03-07T11:23:31.726Z,94095.00
2023-03-07T11:29:12.737Z,94090.00
2023-03-07T11:34:50.593Z,94075.00
2023-03-07T11:40:42.572Z,94076.00
2023-03-07T11:46:12.885Z,94063.00
2023-03-07T11:51:56.257Z,94059.00
2023-03-07T11:57:59.957Z,94063.00
2023-03-07T12:04:12.401Z,94046.00
2023-03-07T12:10:36.232Z,94039.00
2023-03-07T12:16:12.691Z,94034.00
2023-03-07T12:22:18.277Z,94012.00
2023-03-07T12:28:15.257Z,94010.00
2023-03-07T12:34:26.915Z,93999.00
2023-03-07T12:40:24.299Z,93990.00
2023-03-07T12:46:20.570Z,93987.00
2023-03-07T12:51:55.362Z,93996.00
2023-03-07T12:57:35.197Z,93992.00
2023-03-07T13:03:07.330Z,93986.00
2023-03-07T13:08:36.361Z,93996.00
2023-03-07T13:14:07.190Z,93984.00
2023-03-07T13:19:39.038Z,93983.00
2023-03-07T13:25:27.177Z,93974.00
2023-03-07T13:31:17.713Z,93972.00
2023-03-07T13:36:45.877Z,93974.00
2023-03-07T13:42:47.408Z,93964.00
2023-03-07T13:48:27.498Z,93952.00
2023-03-07T13:54:11.011Z,93936.00
2023-03-07T13:59:41.003Z,93933.00
2023-03-07T14:05:09.149Z,93940.00
2023-03-07T14:10:37.537Z,93932.00
2023-03-07T14:16:08.814Z,93921.00
2023-03-07T14:21:50.785Z,93916.00
2023-03-07T14:27:19.022Z,93926.00
2023-03-07T14:32:47.241Z,93935.00
2023-03-07T14:38:26.745Z,93927.00
2023-03-07T14:44:13.518Z,93923.00
2023-03-07T14:49:46.946Z,93928.00
2023-03-07T14:55:27.557Z,93928.00
2023-03-07T15:01:16.029Z,93930.00
2023-03-07T15:06:45.238Z,93900.00
2023-03-07T15:12:19.456Z,93894.00
2023-03-07T15:17:47.608Z,93922.00
2023-03-07T15:23:31.012Z,93927.00
2023-03-07T15:29:08.636Z,93928.00
2023-03-07T15:34:39.426Z,93921.00
2023-03-07T15:40:10.333Z,93929.00
2023-03-07T15:45:43.453Z,93939.00
2023-03-07T15:51:24.281Z,93941.00
2023-03-07T15:57:04.336Z,93944.00
2023-03-07T16:02:32.740Z,93952.00
2023-03-07T16:08:00.991Z,93960.00
2023-03-07T16:13:42.552Z,93961.00
2023-03-07T16:19:10.745Z,93961.00
2023-03-07T16:24:38.878Z,93973.00
2023-03-07T16:30:20.377Z,93971.00
2023-03-07T16:35:48.720Z,93971.00
2023-03-07T16:41:20.264Z,93973.00
2023-03-07T16:47:16.383Z,93972.00
2023-03-07T16:52:44.815Z,93973.00
2023-03-07T16:58:29.783Z,93979.00
2023-03-07T17:03:58.032Z,93994.00
2023-03-07T17:09:26.089Z,93974.00
2023-03-07T17:14:54.804Z,93996.00
2023-03-07T17:20:22.999Z,94003.00
2023-03-07T17:25:50.842Z,94010.00
2023-03-07T17:31:18.989Z,94016.00
2023-03-07T17:36:47.195Z,94026.00
2023-03-07T17:42:15.386Z,94037.00
2023-03-07T17:47:43.414Z,94043.00
2023-03-07T17:53:11.585Z,94059.00
2023-03-07T17:58:39.808Z,94066.00
2023-03-07T18:04:08.299Z,94075.00
2023-03-07T18:09:37.435Z,94074.00
2023-03-07T18:15:16.733Z,94084.00
2023-03-07T18:20:46.085Z,94095.00
2023-03-07T18:26:14.628Z,94093.00
2023-03-07T18:31:43.120Z,94098.00
2023-03-07T18:37:11.513Z,94109.00
2023-03-07T18:42:40.284Z,94090.00
2023-03-07T18:48:08.425Z,94097.00
2023-03-07T18:53:37.728Z,94099.00
2023-03-07T18:59:05.890Z,94110.00
2023-03-07T19:04:34.225Z,94129.00
2023-03-07T19:10:02.521Z,94117.00
2023-03-07T19:15:30.977Z,94128.00
2023-03-07T19:20:59.003Z,94134.00
2023-03-07T19:26:27.206Z,94144.00
2023-03-07T19:31:55.326Z,94144.00
2023-03-07T19:37:24.028Z,94142.00
2023-03-07T19:42:53.387Z,94149.00
2023-03-07T19:48:22.869Z,94152.00
2023-03-07T19:53:51.565Z,94165.00
2023-03-07T19:59:20.231Z,94191.00
2023-03-07T20:04:48.421Z,94188.00
2023-03-07T20:10:16.760Z,94186.00
2023-03-07T20:15:53.977Z,94187.00
2023-03-07T20:21:28.155Z,94187.00
2023-03-07T20:26:56.921Z,94187.00
2023-03-07T20:32:25.556Z,94188.00
2023-03-07T20:37:53.652Z,94190.00
2023-03-07T20:43:21.332Z,94194.00
2023-03-07T20:48:51.970Z,94205.00
2023-03-07T20:54:20.009Z,94208.00
2023-03-07T20:59:49.375Z,94213.00
2023-03-07T21:05:17.795Z,94216.00
2023-03-07T21:10:46.547Z,94214.00
2023-03-07T21:16:18.547Z,94224.00
2023-03-07T21:21:46.766Z,94229.00
2023-03-07T21:27:15.094Z,94232.00
2023-03-07T21:32:43.206Z,94229.00
2023-03-07T21:38:11.624Z,94221.00
2023-03-07T21:43:40.736Z,94240.00
2023-03-07T21:49:09.044Z,94251.00
2023-03-07T21:54:37.105Z,94248.00
2023-03-07T22:00:10.152Z,94246.00
2023-03-07T22:05:39.463Z,94244.00
2023-03-07T22:11:10.117Z,94257.00
2023-03-07T22:16:38.403Z,94255.00
2023-03-07T22:22:06.593Z,94255.00
2023-03-07T22:27:34.321Z,94255.00
2023-03-07T22:33:03.315Z,94266.00
2023-03-07T22:38:31.832Z,94270.00
2023-03-07T22:43:59.741Z,94289.00
2023-03-07T22:49:27.956Z,94281.00
2023-03-07T22:54:55.874Z,94278.00
2023-03-07T23:00:23.776Z,94276.00
2023-03-07T23:05:51.916Z,94265.00
2023-03-07T23:11:24.112Z,94268.00
2023-03-07T23:16:52.588Z,94273.00
2023-03-07T23:22:20.656Z,94275.00
2023-03-07T23:27:48.888Z,94296.00
2023-03-07T23:33:16.594Z,94307.00
2023-03-07T23:38:46.409Z,94321.00
2023-03-07T23:44:14.577Z,94316.00
2023-03-07T23:49:42.629Z,94323.00
2023-03-07T23:55:11.381Z,94326.00
